createdAt,value
2018-07-24T00:00:12.960Z,12.50
2018-07-24T00:02:41.703Z,12.88
2018-07-24T00:05:10.433Z,12.33
2018-07-24T00:07:39.143Z,12.00
2018-07-24T00:10:07.928Z,13.00
2018-07-24T00:12:37.610Z,13.40
2018-07-24T00:15:07.059Z,12.65
2018-07-24T00:17:35.723Z,12.90
2018-07-24T00:20:05.552Z,13.43
2018-07-24T00:22:34.371Z,13.55
2018-07-24T00:25:04.002Z,14.18
2018-07-24T00:27:32.736Z,14.93
2018-07-24T00:30:01.530Z,15.10
2018-07-24T00:32:30.173Z,15.43
2018-07-24T00:34:58.816Z,14.90
2018-07-24T00:37:27.487Z,15.30
2018-07-24T00:39:56.087Z,15.88
2018-07-24T00:42:24.909Z,16.50
2018-07-24T00:44:53.697Z,15.83
2018-07-24T00:47:22.425Z,15.70
2018-07-24T00:49:51.344Z,16.00
2018-07-24T00:52:20.210Z,16.35
2018-07-24T00:54:48.962Z,16.27
2018-07-24T00:57:17.742Z,15.97
2018-07-24T00:59:46.441Z,16.50
2018-07-24T01:02:15.172Z,17.07
2018-07-24T01:04:43.858Z,16.57
2018-07-24T01:07:12.607Z,17.32
2018-07-24T01:09:41.370Z,17.27
2018-07-24T01:12:10.063Z,17.48
2018-07-24T01:14:38.771Z,18.00
2018-07-24T01:17:07.468Z,19.00
2018-07-24T01:19:37.683Z,17.87
2018-07-24T01:22:06.434Z,18.52
2018-07-24T01:24:36.237Z,19.75
2018-07-24T01:27:05.821Z,19.40
2018-07-24T01:29:34.445Z,19.60
2018-07-24T01:32:03.090Z,19.30
2018-07-24T01:34:32.903Z,19.02
2018-07-24T01:37:01.803Z,20.02
2018-07-24T01:39:32.945Z,21.23
2018-07-24T01:42:01.595Z,21.40
2018-07-24T01:44:31.096Z,20.57
2018-07-24T01:46:59.998Z,21.30
2018-07-24T01:49:28.755Z,21.02
2018-07-24T01:51:57.731Z,21.95
2018-07-24T01:54:26.488Z,21.60
2018-07-24T01:56:56.504Z,23.00
2018-07-24T01:59:25.293Z,21.60
2018-07-24T02:01:54.013Z,21.57
2018-07-24T02:04:22.674Z,21.10
2018-07-24T02:06:51.699Z,22.15
2018-07-24T02:09:20.498Z,21.85
2018-07-24T02:11:49.210Z,22.17
2018-07-24T02:14:17.918Z,22.83
2018-07-24T02:16:46.676Z,24.07
2018-07-24T02:19:15.361Z,23.18
2018-07-24T02:21:44.091Z,22.63
2018-07-24T02:24:13.368Z,23.50
2018-07-24T02:26:42.098Z,23.52
2018-07-24T02:29:10.888Z,23.70
2018-07-24T02:31:39.927Z,25.40
2018-07-24T02:34:08.634Z,25.62
2018-07-24T02:36:37.302Z,24.98
2018-07-24T02:39:09.507Z,23.83
2018-07-24T02:41:38.305Z,23.60
2018-07-24T02:44:07.196Z,23.77
2018-07-24T02:46:36.585Z,22.98
2018-07-24T02:49:05.476Z,23.15
2018-07-24T02:51:34.286Z,23.17
2018-07-24T02:54:03.008Z,23.05
2018-07-24T02:56:31.683Z,24.07
2018-07-24T02:59:00.384Z,23.60
2018-07-24T03:01:29.090Z,24.25
2018-07-24T03:03:57.726Z,24.30
2018-07-24T03:06:26.491Z,25.30
2018-07-24T03:08:55.216Z,25.37
2018-07-24T03:11:23.897Z,26.23
2018-07-24T03:13:52.684Z,25.95
2018-07-24T03:16:22.591Z,25.52
2018-07-24T03:18:51.202Z,27.93
2018-07-24T03:21:19.915Z,28.62
2018-07-24T03:23:48.613Z,28.90
2018-07-24T03:26:19.619Z,27.83
2018-07-24T03:28:48.385Z,27.85
2018-07-24T03:31:17.156Z,28.00
2018-07-24T03:33:46.185Z,25.62
2018-07-24T03:36:14.907Z,27.02
2018-07-24T03:38:43.580Z,27.98
2018-07-24T03:41:12.244Z,26.75
2018-07-24T03:43:40.984Z,26.77
2018-07-24T03:46:09.678Z,25.35
2018-07-24T03:48:40.272Z,25.65
2018-07-24T03:51:08.965Z,26.93
2018-07-24T03:53:38.556Z,26.82
2018-07-24T03:56:07.584Z,26.97
2018-07-24T03:58:36.200Z,27.20
2018-07-24T04:01:04.854Z,26.80
2018-07-24T04:03:33.571Z,26.23
2018-07-24T04:06:04.462Z,26.37
2018-07-24T04:08:33.092Z,26.68
2018-07-24T04:11:01.798Z,26.50
2018-07-24T04:13:30.466Z,26.12
2018-07-24T04:15:59.195Z,26.20
2018-07-24T04:18:32.195Z,26.23
2018-07-24T04:21:00.869Z,24.67
2018-07-24T04:23:29.486Z,24.52
2018-07-24T04:25:58.259Z,24.57
2018-07-24T04:28:26.939Z,25.15
2018-07-24T04:30:55.717Z,26.77
2018-07-24T04:33:24.345Z,25.35
2018-07-24T04:35:53.066Z,26.37
2018-07-24T04:38:21.764Z,26.50
2018-07-24T04:40:50.471Z,26.07
2018-07-24T04:43:19.206Z,26.68
2018-07-24T04:45:47.874Z,26.35
2018-07-24T04:48:16.626Z,25.72
2018-07-24T04:50:45.306Z,26.80
2018-07-24T04:53:13.938Z,26.05
2018-07-24T04:55:42.864Z,25.60
2018-07-24T04:58:11.697Z,24.75
2018-07-24T05:00:41.268Z,25.27
2018-07-24T05:03:10.092Z,24.12
2018-07-24T05:05:38.843Z,24.10
2018-07-24T05:08:07.431Z,23.62
2018-07-24T05:10:37.996Z,23.83
2018-07-24T05:13:06.998Z,23.07
2018-07-24T05:15:35.724Z,23.27
2018-07-24T05:18:04.454Z,23.67
2018-07-24T05:20:33.180Z,23.25
2018-07-24T05:23:01.974Z,22.95
2018-07-24T05:25:30.690Z,25.20
2018-07-24T05:27:59.410Z,23.00
2018-07-24T05:30:28.087Z,22.45
2018-07-24T05:32:56.839Z,23.12
2018-07-24T05:35:25.588Z,22.98
2018-07-24T05:37:54.343Z,21.97
2018-07-24T05:40:23.104Z,23.03
2018-07-24T05:42:51.838Z,22.30
2018-07-24T05:45:21.214Z,22.35
2018-07-24T05:47:51.432Z,23.42
2018-07-24T05:50:22.125Z,22.15
2018-07-24T05:52:50.850Z,22.87
2018-07-24T05:55:19.494Z,21.52
2018-07-24T05:57:48.179Z,20.82
2018-07-24T06:00:19.524Z,20.80
2018-07-24T06:02:48.205Z,19.62
2018-07-24T06:05:17.565Z,20.37
2018-07-24T06:07:46.405Z,20.43
2018-07-24T06:10:15.175Z,21.27
2018-07-24T06:12:44.602Z,21.75
2018-07-24T06:15:17.677Z,20.97
2018-07-24T06:17:46.703Z,21.95
2018-07-24T06:20:17.130Z,22.27
2018-07-24T06:22:48.964Z,22.70
2018-07-24T06:25:18.039Z,20.77
2018-07-24T06:27:46.901Z,20.90
2018-07-24T06:30:16.227Z,20.88
2018-07-24T06:32:45.188Z,20.80
2018-07-24T06:35:17.760Z,20.90
2018-07-24T06:37:46.562Z,20.80
2018-07-24T06:40:16.192Z,20.68
2018-07-24T06:42:44.957Z,21.45
2018-07-24T06:45:13.804Z,21.05
2018-07-24T06:47:43.958Z,21.17
2018-07-24T06:50:13.366Z,20.10
2018-07-24T06:52:42.074Z,19.52
2018-07-24T06:55:10.884Z,20.55
2018-07-24T06:57:39.707Z,20.02
2018-07-24T07:00:12.190Z,20.70
2018-07-24T07:02:41.251Z,19.85
2018-07-24T07:05:10.139Z,19.27
2018-07-24T07:07:39.023Z,19.17
2018-07-24T07:10:11.548Z,19.70
2018-07-24T07:12:40.463Z,19.23
2018-07-24T07:15:09.688Z,19.25
2018-07-24T07:17:38.451Z,18.62
2018-07-24T07:20:07.398Z,17.23
2018-07-24T07:22:36.359Z,17.50
2018-07-24T07:25:05.122Z,16.12
2018-07-24T07:27:33.826Z,15.45
2018-07-24T07:30:02.728Z,16.77
2018-07-24T07:32:31.526Z,15.63
2018-07-24T07:35:00.372Z,15.90
2018-07-24T07:37:29.971Z,14.75
2018-07-24T07:39:58.683Z,15.23
2018-07-24T07:42:27.379Z,13.88
2018-07-24T07:44:56.495Z,14.33
2018-07-24T07:47:25.349Z,14.50
2018-07-24T07:49:54.076Z,14.28
2018-07-24T07:52:25.041Z,13.35
2018-07-24T07:54:53.719Z,13.75
2018-07-24T07:57:25.224Z,13.60
2018-07-24T07:59:53.970Z,12.82
2018-07-24T08:02:24.919Z,13.53
2018-07-24T08:04:53.590Z,12.93
2018-07-24T08:07:24.359Z,12.37
2018-07-24T08:09:53.233Z,12.33
2018-07-24T08:12:22.181Z,12.03
2018-07-24T08:14:50.926Z,12.00
2018-07-24T08:17:21.386Z,11.45
2018-07-24T08:19:50.294Z,10.63
2018-07-24T08:22:19.511Z,11.38
2018-07-24T08:24:48.255Z,11.60
2018-07-24T08:27:17.009Z,11.50
2018-07-24T08:29:45.736Z,11.43
2018-07-24T08:32:14.496Z,12.07
2018-07-24T08:34:43.970Z,11.93
2018-07-24T08:37:12.718Z,10.30
2018-07-24T08:39:41.462Z,11.03
2018-07-24T08:42:10.220Z,11.00
2018-07-24T08:44:38.991Z,11.25
2018-07-24T08:47:07.735Z,11.40
2018-07-24T08:54:04.161Z,11.63
2018-07-24T08:56:32.688Z,11.50
2018-07-24T08:59:01.123Z,11.17
2018-07-24T09:01:30.129Z,11.57
2018-07-24T09:04:02.980Z,11.10
2018-07-24T09:06:41.360Z,11.65
2018-07-24T09:09:11.955Z,11.70
2018-07-24T09:11:41.332Z,10.75
2018-07-24T09:14:10.113Z,11.25
2018-07-24T09:16:39.309Z,11.57
2018-07-24T09:19:08.478Z,11.20
2018-07-24T09:21:37.177Z,11.33
2018-07-24T09:24:05.926Z,10.25
2018-07-24T09:26:34.634Z,10.45
2018-07-24T09:29:03.506Z,10.43
2018-07-24T09:31:32.300Z,10.18
2018-07-24T09:34:00.978Z,10.37
2018-07-24T09:36:29.792Z,10.13
2018-07-24T09:39:00.964Z,9.68
2018-07-24T09:41:29.887Z,9.97
2018-07-24T09:43:58.691Z,9.88
2018-07-24T09:46:27.504Z,10.68
2018-07-24T09:48:56.310Z,9.90
2018-07-24T09:51:25.270Z,10.20
2018-07-24T09:53:53.966Z,9.30
2018-07-24T09:56:22.833Z,9.03
2018-07-24T09:58:51.718Z,9.50
2018-07-24T10:01:26.459Z,10.58
2018-07-24T10:03:55.162Z,9.90
2018-07-24T10:06:24.047Z,10.48
2018-07-24T10:08:53.107Z,9.70
2018-07-24T10:11:21.874Z,9.38
2018-07-24T10:13:50.755Z,9.85
2018-07-24T10:16:21.642Z,9.00
2018-07-24T10:18:50.464Z,13.45
2018-07-24T10:21:19.373Z,9.23
2018-07-24T10:23:57.067Z,9.03
2018-07-24T10:26:26.069Z,9.70
2018-07-24T10:28:54.690Z,13.00
2018-07-24T10:31:23.439Z,8.43
2018-07-24T10:33:57.741Z,9.23
2018-07-24T10:36:26.582Z,10.45
2018-07-24T10:38:55.540Z,9.70
2018-07-24T10:41:26.434Z,8.78
2018-07-24T10:43:55.546Z,8.60
2018-07-24T10:46:25.084Z,8.90
2018-07-24T10:48:53.883Z,8.60
2018-07-24T10:51:22.561Z,14.80
2018-07-24T10:53:53.120Z,8.38
2018-07-24T10:56:21.809Z,8.05
2018-07-24T10:58:50.516Z,11.20
2018-07-24T11:01:19.395Z,8.75
2018-07-24T11:03:48.128Z,8.45
2018-07-24T11:06:16.956Z,32.38
2018-07-24T11:08:45.747Z,7.47
2018-07-24T11:11:16.844Z,7.57
2018-07-24T11:13:45.678Z,8.93
2018-07-24T11:16:14.515Z,8.73
2018-07-24T11:18:43.329Z,6.97
2018-07-24T11:21:12.046Z,8.55
2018-07-24T11:23:42.773Z,6.58
2018-07-24T11:26:11.691Z,6.58
2018-07-24T11:28:40.794Z,6.85
2018-07-24T11:31:09.585Z,7.30
2018-07-24T11:33:39.418Z,6.67
2018-07-24T11:36:08.540Z,6.58
2018-07-24T11:38:39.433Z,6.60
2018-07-24T11:41:08.308Z,6.55
2018-07-24T11:43:39.609Z,6.83
2018-07-24T11:46:08.686Z,6.40
2018-07-24T11:48:38.662Z,6.83
2018-07-24T11:51:07.379Z,6.92
2018-07-24T11:53:37.641Z,7.42
2018-07-24T11:56:11.614Z,6.87
2018-07-24T11:58:40.872Z,8.05
2018-07-24T12:01:09.600Z,7.78
2018-07-24T12:03:38.830Z,6.80
2018-07-24T12:06:07.426Z,6.30
2018-07-24T12:08:36.082Z,7.00
2018-07-24T12:11:04.793Z,7.65
2018-07-24T12:13:35.930Z,6.70
2018-07-24T12:16:05.540Z,6.70
2018-07-24T12:18:35.296Z,6.95
2018-07-24T12:21:04.127Z,7.40
2018-07-24T12:23:33.006Z,7.60
2018-07-24T12:26:01.882Z,8.65
2018-07-24T12:28:30.711Z,7.78
2018-07-24T12:30:59.427Z,7.03
2018-07-24T12:33:28.154Z,7.40
2018-07-24T12:35:56.940Z,6.85
2018-07-24T12:38:25.615Z,6.92
2018-07-24T12:40:54.388Z,6.93
2018-07-24T12:43:23.138Z,6.90
2018-07-24T12:45:52.510Z,7.95
2018-07-24T12:48:21.368Z,7.60
2018-07-24T12:50:50.050Z,6.55
2018-07-24T12:53:18.783Z,6.65
2018-07-24T12:55:47.535Z,6.08
2018-07-24T12:58:16.325Z,6.47
2018-07-24T13:00:44.982Z,5.63
2018-07-24T13:03:13.882Z,5.80
2018-07-24T13:05:42.572Z,6.00
2018-07-24T13:08:17.961Z,6.12
2018-07-24T13:10:53.867Z,6.00
2018-07-24T13:13:23.116Z,6.20
2018-07-24T13:15:51.830Z,5.70
2018-07-24T13:18:20.655Z,5.67
2018-07-24T13:20:55.526Z,5.55
2018-07-24T13:23:37.077Z,5.40
2018-07-24T13:26:06.651Z,5.55
2018-07-24T13:28:37.722Z,5.45
2018-07-24T13:31:08.520Z,5.60
2018-07-24T13:33:37.364Z,5.67
2018-07-24T13:36:12.182Z,7.03
2018-07-24T13:38:45.259Z,5.92
2018-07-24T13:41:14.362Z,5.67
2018-07-24T13:43:43.070Z,5.27
2018-07-24T13:46:11.746Z,5.80
2018-07-24T13:48:40.486Z,5.70
2018-07-24T13:52:39.918Z,5.33
2018-07-24T13:55:08.727Z,6.08
2018-07-24T13:57:37.655Z,6.12
2018-07-24T14:00:06.756Z,5.63
2018-07-24T14:02:35.482Z,5.58
2018-07-24T14:05:04.310Z,5.45
2018-07-24T14:07:33.008Z,5.70
2018-07-24T14:10:01.828Z,6.10
2018-07-24T14:12:30.822Z,5.65
2018-07-24T14:14:59.664Z,6.50
2018-07-24T14:17:28.426Z,5.90
2018-07-24T14:19:57.144Z,6.08
2018-07-24T14:22:25.969Z,6.15
2018-07-24T14:24:54.839Z,6.28
2018-07-24T14:27:23.604Z,6.87
2018-07-24T14:29:52.507Z,6.50
2018-07-24T14:32:21.251Z,5.90
2018-07-24T14:34:50.194Z,6.50
2018-07-24T14:37:19.208Z,6.67
2018-07-24T14:39:48.905Z,6.10
2018-07-24T14:42:18.484Z,6.28
2018-07-24T14:44:47.253Z,6.40
2018-07-24T14:47:15.911Z,6.22
2018-07-24T14:49:44.609Z,5.83
2018-07-24T14:52:13.334Z,6.25
2018-07-24T14:54:42.058Z,5.77
2018-07-24T14:57:10.827Z,5.73
2018-07-24T14:59:39.588Z,5.95
2018-07-24T15:02:09.408Z,5.47
2018-07-24T15:04:38.185Z,5.67
2018-07-24T15:07:08.950Z,6.30
2018-07-24T15:09:37.711Z,5.22
2018-07-24T15:12:06.556Z,5.45
2018-07-24T15:14:35.453Z,5.60
2018-07-24T15:17:04.285Z,6.17
2018-07-24T15:19:34.604Z,6.43
2018-07-24T15:22:03.325Z,5.30
2018-07-24T15:24:32.143Z,5.85
2018-07-24T15:27:00.882Z,5.70
2018-07-24T15:29:29.796Z,6.10
2018-07-24T15:31:59.455Z,6.12
2018-07-24T15:34:28.308Z,6.15
2018-07-24T15:36:56.888Z,6.10
2018-07-24T15:39:25.626Z,5.73
2018-07-24T15:41:54.466Z,5.87
2018-07-24T15:44:23.269Z,6.00
2018-07-24T15:46:54.431Z,6.12
2018-07-24T15:49:48.461Z,6.00
2018-07-24T15:52:17.241Z,5.50
2018-07-24T15:54:46.046Z,6.05
2018-07-24T15:57:14.869Z,5.78
2018-07-24T15:59:43.620Z,6.47
2018-07-24T16:02:12.340Z,6.70
2018-07-24T16:04:41.007Z,5.85
2018-07-24T16:07:09.757Z,5.70
2018-07-24T16:09:38.684Z,5.72
2018-07-24T16:12:08.589Z,6.95
2018-07-24T16:14:37.418Z,6.87
2018-07-24T16:17:06.719Z,6.22
2018-07-24T16:19:35.578Z,6.17
2018-07-24T16:22:04.477Z,13.25
2018-07-24T16:24:33.387Z,6.12
2018-07-24T16:27:02.189Z,5.92
2018-07-24T16:29:31.109Z,6.37
2018-07-24T16:32:00.033Z,6.40
2018-07-24T16:34:28.708Z,6.53
2018-07-24T16:36:57.552Z,6.12
2018-07-24T16:39:26.417Z,6.40
2018-07-24T16:41:55.155Z,6.17
2018-07-24T16:44:24.001Z,7.67
2018-07-24T16:46:53.037Z,7.70
2018-07-24T16:49:23.479Z,6.10
2018-07-24T16:51:52.349Z,6.50
2018-07-24T16:54:21.220Z,6.80
2018-07-24T16:56:49.945Z,6.55
2018-07-24T16:59:18.753Z,7.03
2018-07-24T17:01:48.118Z,6.30
2018-07-24T17:04:17.711Z,6.70
2018-07-24T17:06:46.391Z,8.03
2018-07-24T17:09:15.177Z,7.60
2018-07-24T17:11:44.106Z,7.75
2018-07-24T17:14:13.211Z,7.75
2018-07-24T17:16:42.291Z,8.53
2018-07-24T17:19:11.395Z,7.83
2018-07-24T17:21:40.341Z,8.53
2018-07-24T17:24:09.038Z,7.37
2018-07-24T17:26:39.940Z,7.03
2018-07-24T17:29:12.647Z,7.03
2018-07-24T17:31:41.398Z,7.30
2018-07-24T17:34:10.140Z,6.80
2018-07-24T17:36:39.183Z,7.42
2018-07-24T17:39:09.085Z,7.50
2018-07-24T17:41:37.888Z,8.55
2018-07-24T17:44:07.040Z,9.07
2018-07-24T17:46:35.967Z,9.10
2018-07-24T17:49:04.770Z,8.48
2018-07-24T17:51:34.351Z,8.53
2018-07-24T17:54:03.122Z,8.23
2018-07-24T17:56:31.811Z,9.23
2018-07-24T17:59:00.680Z,8.88
2018-07-24T18:01:29.662Z,10.10
2018-07-24T18:03:59.454Z,9.27
2018-07-24T18:06:28.177Z,8.20
2018-07-24T18:08:56.956Z,8.78
2018-07-24T18:11:27.872Z,8.17
2018-07-24T18:13:56.939Z,8.78
2018-07-24T18:16:28.344Z,8.80
2018-07-24T18:18:57.114Z,8.48
2018-07-24T18:21:26.082Z,8.18
2018-07-24T18:23:54.670Z,7.62
2018-07-24T18:26:23.542Z,10.60
2018-07-24T18:28:52.166Z,10.40
2018-07-24T18:31:20.848Z,8.90
2018-07-24T18:36:42.987Z,11.22
2018-07-24T18:39:13.979Z,8.63
2018-07-24T18:41:42.680Z,8.27
2018-07-24T18:44:21.361Z,8.40
2018-07-24T18:46:50.731Z,9.13
2018-07-24T18:49:20.033Z,9.50
2018-07-24T18:51:48.758Z,8.93
2018-07-24T18:54:17.850Z,9.30
2018-07-24T18:56:46.780Z,9.95
2018-07-24T18:59:15.506Z,10.18
2018-07-24T19:01:44.334Z,10.57
2018-07-24T19:04:13.116Z,11.90
2018-07-24T19:06:41.834Z,9.30
2018-07-24T19:09:11.181Z,9.98
2018-07-24T19:11:40.131Z,9.03
2018-07-24T19:14:09.056Z,9.67
2018-07-24T19:16:37.796Z,9.40
2018-07-24T19:19:06.598Z,9.67
2018-07-24T19:21:35.644Z,9.63
2018-07-24T19:24:06.883Z,9.30
2018-07-24T19:26:35.787Z,9.68
2018-07-24T19:29:04.525Z,11.25
2018-07-24T19:31:33.248Z,9.80
2018-07-24T19:34:02.133Z,10.45
2018-07-24T19:36:31.242Z,10.13
2018-07-24T19:39:00.231Z,9.75
2018-07-24T19:41:29.200Z,10.30
2018-07-24T19:43:57.868Z,9.63
2018-07-24T19:46:27.665Z,10.47
2018-07-24T19:48:57.731Z,9.63
2018-07-24T19:51:26.415Z,10.60
2018-07-24T19:53:55.374Z,10.90
2018-07-24T19:56:24.298Z,10.18
2018-07-24T19:58:53.044Z,10.10
2018-07-24T20:01:21.940Z,10.40
2018-07-24T20:03:53.756Z,10.13
2018-07-24T20:06:22.654Z,9.93
2018-07-24T20:08:51.424Z,10.25
2018-07-24T20:11:20.334Z,9.83
2018-07-24T20:13:49.076Z,9.23
2018-07-24T20:16:18.417Z,9.70
2018-07-24T20:18:47.038Z,9.30
2018-07-24T20:21:15.807Z,9.50
2018-07-24T20:23:44.803Z,9.83
2018-07-24T20:26:13.753Z,10.50
2018-07-24T20:28:42.541Z,9.93
2018-07-24T20:31:11.274Z,9.85
2018-07-24T20:33:40.059Z,9.78
2018-07-24T20:36:08.923Z,9.98
2018-07-24T20:38:37.656Z,11.60
2018-07-24T20:41:08.838Z,10.60
2018-07-24T20:43:37.554Z,9.18
2018-07-24T20:46:06.629Z,10.57
2018-07-24T20:48:35.488Z,9.63
2018-07-24T20:51:04.453Z,10.65
2018-07-24T20:53:33.100Z,10.32
2018-07-24T20:56:01.978Z,9.73
2018-07-24T20:58:30.694Z,9.60
2018-07-24T21:00:59.535Z,10.00
2018-07-24T21:03:28.355Z,10.13
2018-07-24T21:05:57.382Z,9.80
2018-07-24T21:08:27.117Z,9.88
2018-07-24T21:10:55.907Z,9.98
2018-07-24T21:13:24.775Z,10.13
2018-07-24T21:15:53.487Z,10.03
2018-07-24T21:18:23.173Z,9.85
2018-07-24T21:20:52.785Z,10.20
2018-07-24T21:23:21.533Z,9.93
2018-07-24T21:25:50.281Z,10.28
2018-07-24T21:28:18.993Z,10.60
2018-07-24T21:30:47.718Z,10.38
2018-07-24T21:33:16.741Z,10.83
2018-07-24T21:35:45.789Z,11.73
2018-07-24T21:38:14.664Z,9.83
2018-07-24T21:40:43.421Z,10.55
2018-07-24T21:43:12.104Z,10.30
2018-07-24T21:45:41.044Z,11.12
2018-07-24T21:48:09.773Z,10.90
2018-07-24T21:50:38.751Z,11.33
2018-07-24T21:53:07.899Z,11.00
2018-07-24T21:55:37.851Z,11.15
2018-07-24T21:58:06.586Z,11.22
2018-07-24T22:00:37.536Z,12.07
2018-07-24T22:03:07.965Z,11.65
2018-07-24T22:05:36.649Z,11.40
2018-07-24T22:08:05.576Z,11.93
2018-07-24T22:10:34.212Z,11.97
2018-07-24T22:13:02.964Z,12.30
2018-07-24T22:15:32.086Z,12.10
2018-07-24T22:18:00.767Z,12.35
2018-07-24T22:20:29.499Z,12.05
2018-07-24T22:22:58.311Z,11.25
2018-07-24T22:25:26.982Z,11.50
2018-07-24T22:27:55.708Z,11.70
2018-07-24T22:30:24.393Z,11.88
2018-07-24T22:32:53.117Z,12.23
2018-07-24T22:35:21.833Z,11.73
2018-07-24T22:37:50.513Z,12.10
2018-07-24T22:40:19.269Z,13.03
2018-07-24T22:42:48.059Z,12.37
2018-07-24T22:45:16.748Z,12.70
2018-07-24T22:47:45.440Z,12.23
2018-07-24T22:50:14.186Z,12.50
2018-07-24T22:52:42.860Z,12.33
2018-07-24T22:55:11.537Z,13.00
2018-07-24T22:57:40.763Z,12.88
2018-07-24T23:00:09.493Z,12.33
2018-07-24T23:02:38.252Z,12.87
2018-07-24T23:05:07.065Z,13.13
2018-07-24T23:07:35.742Z,12.68
2018-07-24T23:10:04.894Z,12.70
2018-07-24T23:12:33.730Z,12.90
2018-07-24T23:15:02.459Z,12.85
2018-07-24T23:17:31.187Z,13.48
2018-07-24T23:19:59.944Z,13.10
2018-07-24T23:22:28.770Z,13.05
2018-07-24T23:24:57.520Z,13.88
2018-07-24T23:27:26.334Z,14.25
2018-07-24T23:29:55.031Z,13.98
2018-07-24T23:32:23.660Z,13.97
2018-07-24T23:34:52.411Z,13.32
2018-07-24T23:37:21.043Z,13.45
2018-07-24T23:39:49.756Z,14.00
2018-07-24T23:42:18.548Z,13.53
2018-07-24T23:44:47.326Z,14.07
2018-07-24T23:47:16.026Z,13.98
2018-07-24T23:49:44.735Z,13.60
2018-07-24T23:52:13.452Z,14.35
2018-07-24T23:54:42.133Z,13.45
2018-07-24T23:57:10.771Z,14.37
2018-07-24T23:59:39.468Z,13.93
